Accueil
METAR-TAF:

METAR-TAF

Aéroports :

Aéroport international de Larnaca

Larnaca, Chypre

latitude: 34-53N, longitude: 033-38E, altitude: 2 m

Observation

Le bulletin a été fait il y a 31 minutes, à 00:30 UTC
Vent 4 kt de ouest, variant entre ouest/sud-ouest et nord-ouest
Température 19°C
Humidité 88%
Pression 1014 hPa
Visibilité 10 km ou plus
Quelques nuages à une hauteur de 2500 ft

METAR: LCLK 220030Z 27004KT 250V320 9999 FEW025 19/17 Q1014 NOSIG

Heure: 04:01 (01:01 UTC)

Prévision

Le bulletin a été fait il y a 1 heure et 31 minutes, à 23:30 UTC
Prévision valable du 22 à 00 UTC au 22 à 24 UTC
Vent 6 kt de nord-ouest
Visibilité 10 km ou plus
Quelques nuages à une hauteur de 2500 ft
Evoluant progressivement
du 22 à 08 UTC au 22 à 11 UTC
Vent 12 kt de sud-est
Evoluant progressivement
du 22 à 16 UTC au 22 à 18 UTC
Vent 8 kt de nord/nord-est

TAF: LCLK 212330Z 2200/2224 32006KT 9999 FEW025 BECMG 2208/2211 13012KT BECMG 2216/2218 02008KT

Observations et prévisions météorologiques de plus de 4000 aéroports (messages METAR et TAF).

Les stations disponibles sont représentées par des disques jaunes et rouges sur la carte.

Passer la souris dessus pour voir le nom de la station.

Cliquer dessus pour voir les observations et prévisions météorologiques.

Pour changer de carte: cliquez sur les boutons verts avec une croix noire pour zoomer, sur le bouton vert avec un tiret pour effectuer un zoom arrière, ou sur les flèches vertes pour les cartes adjacentes.


METAR-TAF: